Time;durP1;ratioP1;P1;durP2;ratioP2;P2;SDS_P1;SDS_P2;PMS_P1;PMS_P2;Temp;Humidity;BMP_temperature;BMP_pressure;BME280_temperature;BME280_humidity;BME280_pressure;Samples;Min_cycle;Max_cycle;Signal;HPM_P1;HPM_P2
2021/12/22 00:00:56;;;;;;;15.70;8.90;;;-1.10;69.60;;;-1.57;54.04;95736.47;5003073;28;21014;-56
2021/12/22 00:03:24;;;;;;;15.37;9.40;;;-1.10;69.60;;;-1.58;54.36;95732.19;5000359;28;20446;-57
2021/12/22 00:05:52;;;;;;;17.50;10.13;;;-1.10;69.70;;;-1.58;54.03;95735.63;4999867;28;20547;-59
2021/12/22 00:08:19;;;;;;;16.10;9.10;;;-1.10;69.40;;;-1.57;54.03;95728.72;4997851;28;20458;-58
2021/12/22 00:10:49;;;;;;;14.77;8.67;;;-1.10;69.50;;;-1.58;53.77;95732.19;4998813;28;20459;-57
2021/12/22 00:13:16;;;;;;;20.33;10.03;;;-1.10;70.00;;;-1.59;54.59;95722.78;4993601;28;20494;-57
2021/12/22 00:15:45;;;;;;;19.80;8.70;;;-1.10;70.00;;;-1.61;54.07;95727.97;4999730;28;20446;-56
2021/12/22 00:18:12;;;;;;;14.03;8.80;;;-1.10;69.80;;;-1.61;53.91;95733.13;5003493;28;20465;-60
2021/12/22 00:20:40;;;;;;;15.97;9.40;;;-1.20;69.90;;;-1.61;54.60;95730.56;5002345;28;20446;-57
2021/12/22 00:23:07;;;;;;;18.67;10.50;;;-1.20;69.90;;;-1.62;54.03;95731.44;5004261;28;20557;-59
2021/12/22 00:25:35;;;;;;;16.77;8.93;;;-1.10;70.00;;;-1.63;53.89;95719.41;5001973;28;20453;-60
2021/12/22 00:28:03;;;;;;;14.57;8.83;;;-1.10;70.00;;;-1.66;54.27;95728.13;5006067;28;20454;-59
2021/12/22 00:30:30;;;;;;;16.20;9.10;;;-1.20;69.90;;;-1.69;54.97;95727.34;5007799;28;20481;-57
2021/12/22 00:33:04;;;;;;;13.10;8.60;;;-1.20;70.00;;;-1.71;54.67;95732.53;5003937;28;20461;-57
2021/12/22 00:35:39;;;;;;;17.33;8.73;;;-1.20;70.70;;;-1.74;54.90;95739.53;5003071;28;20458;-55
2021/12/22 00:38:06;;;;;;;13.97;8.33;;;-1.30;70.40;;;-1.79;54.97;95742.25;5001004;28;20445;-57
2021/12/22 00:40:33;;;;;;;12.50;8.50;;;-1.30;70.60;;;-1.81;54.31;95744.84;5004048;28;20481;-60
2021/12/22 00:43:01;;;;;;;16.07;8.90;;;-1.40;70.60;;;-1.80;55.39;95745.69;5000137;28;20808;-60
2021/12/22 00:45:30;;;;;;;18.37;9.53;;;-1.30;70.90;;;-1.80;54.70;95750.84;5004668;28;20908;-57
2021/12/22 00:47:59;;;;;;;13.63;8.27;;;-1.30;70.90;;;-1.79;54.34;95749.97;5005307;28;20457;-60
2021/12/22 00:50:26;;;;;;;15.40;7.60;;;-1.30;70.70;;;-1.79;54.60;95743.97;5003771;28;20454;-60
2021/12/22 00:52:54;;;;;;;15.17;8.80;;;-1.30;70.60;;;-1.78;55.40;95751.69;5005434;28;20516;-60
2021/12/22 00:55:21;;;;;;;14.30;8.90;;;-1.30;71.00;;;-1.77;54.75;95747.34;5002943;28;21032;-60
2021/12/22 00:57:49;;;;;;;16.70;8.17;;;-1.30;70.70;;;-1.79;55.03;95747.41;5000894;28;20512;-58
2021/12/22 01:00:17;;;;;;;14.40;7.53;;;-1.30;70.90;;;-1.78;54.54;95750.81;5000143;28;20970;-60
2021/12/22 01:02:45;;;;;;;11.90;7.70;;;-1.30;71.00;;;-1.79;55.38;95756.88;4998812;28;20479;-60
2021/12/22 01:05:14;;;;;;;9.00;6.50;;;-1.30;71.00;;;-1.80;54.67;95761.16;5002673;28;20462;-60
2021/12/22 01:07:42;;;;;;;11.23;7.30;;;-1.30;70.90;;;-1.81;54.97;95760.34;5005407;28;20477;-56
2021/12/22 01:10:10;;;;;;;13.07;7.07;;;-1.30;71.00;;;-1.78;55.16;95750.81;5006027;28;20808;-56
2021/12/22 01:12:38;;;;;;;9.07;6.97;;;-1.30;70.90;;;-1.78;55.12;95745.66;5003217;28;20477;-59
2021/12/22 01:15:06;;;;;;;13.67;7.00;;;-1.30;71.00;;;-1.76;55.04;95743.91;5004308;28;20513;-60
2021/12/22 01:17:39;;;;;;;11.80;7.33;;;-1.30;70.90;;;-1.75;54.38;95743.84;5004575;28;20478;-58
2021/12/22 01:20:14;;;;;;;17.23;7.07;;;-1.30;70.80;;;-1.73;54.65;95743.81;5004952;28;20446;-56
2021/12/22 01:22:48;;;;;;;10.10;7.00;;;-1.30;71.10;;;-1.77;54.80;95737.03;4998950;28;20473;-57
2021/12/22 01:25:18;;;;;;;10.90;6.80;;;-1.30;71.10;;;-1.74;54.71;95731.78;4996708;28;20548;-60
2021/12/22 01:27:45;;;;;;;13.40;7.03;;;-1.30;70.80;;;-1.73;54.98;95731.75;4998834;28;20489;-60
2021/12/22 01:30:16;;;;;;;11.20;7.23;;;-1.30;71.10;;;-1.71;55.05;95732.53;5001725;28;21002;-56
2021/12/22 01:32:43;;;;;;;10.70;6.67;;;-1.30;71.20;;;-1.69;55.13;95732.50;4997999;28;20469;-60
2021/12/22 01:35:12;;;;;;;7.50;6.43;;;-1.20;71.40;;;-1.69;54.74;95729.91;5007213;28;20489;-56
2021/12/22 01:37:40;;;;;;;7.33;5.93;;;-1.20;71.10;;;-1.69;54.92;95724.75;5004601;28;20474;-55
2021/12/22 01:40:10;;;;;;;8.60;6.30;;;-1.30;71.10;;;-1.70;54.82;95725.66;5006076;28;20450;-58
2021/12/22 01:42:39;;;;;;;5.90;5.30;;;-1.20;71.10;;;-1.73;54.44;95728.34;5005158;28;20474;-61
2021/12/22 01:45:27;;;;;;;12.33;7.17;;;-1.30;71.00;;;-1.74;54.54;95724.06;4998639;28;20467;-57
2021/12/22 01:50:42;;;;;;;13.50;6.80;;;-1.30;71.00;;;-1.76;54.84;95721.53;5000222;28;20449;-58
2021/12/22 01:53:32;;;;;;;12.90;5.60;;;-1.30;71.10;;;-1.75;54.38;95714.63;5002377;28;20460;-56
2021/12/22 01:56:10;;;;;;;8.13;6.17;;;-1.30;71.00;;;-1.77;54.56;95718.97;5001063;28;20466;-60
2021/12/22 01:58:43;;;;;;;10.00;6.60;;;-1.30;70.90;;;-1.79;54.97;95721.59;5004817;28;20536;-61
2021/12/22 02:01:11;;;;;;;8.37;6.50;;;-1.30;71.10;;;-1.83;54.97;95722.56;5003177;28;20470;-57
2021/12/22 02:03:39;;;;;;;16.03;7.07;;;-1.30;70.80;;;-1.87;54.19;95718.41;5002505;28;20830;-59
2021/12/22 02:06:08;;;;;;;10.30;7.47;;;-1.40;71.60;;;-1.92;55.20;95715.97;5002231;28;20894;-61
2021/12/22 02:08:36;;;;;;;15.67;8.60;;;-1.40;70.90;;;-1.94;54.51;95714.31;5002142;28;20557;-60
2021/12/22 02:11:05;;;;;;;14.70;7.53;;;-1.50;70.90;;;-1.98;54.58;95719.56;5000918;28;20536;-57
2021/12/22 02:13:36;;;;;;;9.40;6.90;;;-1.50;71.00;;;-2.00;55.52;95717.91;4996613;28;20455;-57
2021/12/22 02:16:06;;;;;;;14.73;5.90;;;-1.50;71.20;;;-2.02;54.56;95717.09;4999498;28;20478;-60
2021/12/22 02:18:34;;;;;;;23.73;8.10;;;-1.50;71.70;;;-2.04;55.01;95712.00;5002694;28;20545;-61
2021/12/22 02:21:03;;;;;;;11.97;7.17;;;-1.50;71.60;;;-2.04;54.87;95713.72;5002851;28;20465;-59
2021/12/22 02:23:31;;;;;;;10.93;6.80;;;-1.60;71.60;;;-2.08;55.56;95702.66;5005492;28;20461;-56
2021/12/22 02:26:03;;;;;;;12.17;7.00;;;-1.60;71.60;;;-2.11;54.84;95707.88;4997975;28;20471;-60
2021/12/22 02:28:34;;;;;;;13.97;7.63;;;-1.60;71.60;;;-2.18;54.96;95696.91;5002807;28;20446;-60
2021/12/22 02:31:02;;;;;;;12.40;8.30;;;-1.60;71.60;;;-2.17;55.64;95702.91;5004906;28;20482;-61
2021/12/22 02:33:35;;;;;;;11.73;7.60;;;-1.60;72.20;;;-2.17;55.10;95702.91;5004063;28;20886;-60
2021/12/22 02:36:21;;;;;;;9.90;6.20;;;-1.70;72.00;;;-2.20;55.39;95701.28;5004161;28;20469;-57
2021/12/22 02:38:50;;;;;;;17.83;6.77;;;-1.70;72.30;;;-2.21;56.06;95691.84;5000552;28;20454;-60
2021/12/22 02:41:18;;;;;;;12.20;7.23;;;-1.70;72.70;;;-2.22;55.48;95689.31;4998625;28;20475;-61
2021/12/22 02:43:55;;;;;;;11.93;7.10;;;-1.70;72.70;;;-2.23;56.19;95692.75;5006398;28;20461;-60
2021/12/22 02:46:24;;;;;;;14.00;7.50;;;-1.80;72.70;;;-2.26;56.21;95691.13;5004581;28;20470;-59
2021/12/22 02:48:51;;;;;;;9.03;6.40;;;-1.70;72.50;;;-2.28;55.29;95682.56;5002561;28;20459;-56
2021/12/22 02:51:20;;;;;;;11.07;6.40;;;-1.80;72.50;;;-2.28;55.67;95685.16;5000487;28;20478;-57
2021/12/22 02:53:59;;;;;;;9.93;7.17;;;-1.80;72.70;;;-2.29;56.01;95693.78;5002321;28;20467;-60
2021/12/22 02:56:33;;;;;;;7.57;6.40;;;-1.80;72.70;;;-2.30;55.54;95697.25;4999344;28;20485;-60
2021/12/22 02:59:09;;;;;;;13.50;7.13;;;-1.80;73.00;;;-2.31;55.11;95692.97;4993543;28;20446;-57
2021/12/22 03:02:05;;;;;;;9.87;6.50;;;-1.80;72.90;;;-2.32;56.52;95699.03;4996829;28;20560;-57
2021/12/22 03:04:34;;;;;;;13.73;7.37;;;-1.80;72.90;;;-2.31;55.74;95698.13;5001785;28;20464;-58
2021/12/22 03:07:09;;;;;;;13.30;8.47;;;-1.80;72.90;;;-2.31;55.34;95689.56;5003394;28;20482;-60
2021/12/22 03:09:37;;;;;;;17.73;8.90;;;-1.80;72.90;;;-2.30;56.46;95697.25;5003944;28;20441;-57
2021/12/22 03:12:06;;;;;;;20.37;9.30;;;-1.80;72.90;;;-2.30;55.49;95691.25;5003123;28;20485;-59
2021/12/22 03:14:33;;;;;;;15.80;8.90;;;-1.80;73.10;;;-2.30;55.58;95691.25;5001959;28;20482;-61
2021/12/22 03:17:01;;;;;;;12.90;8.13;;;-1.80;73.20;;;-2.30;56.15;95696.41;5003926;28;21021;-57
2021/12/22 03:19:34;;;;;;;13.33;8.10;;;-1.80;73.40;;;-2.31;56.19;95700.69;4999074;28;20823;-56
2021/12/22 03:22:05;;;;;;;22.53;9.30;;;-1.80;72.90;;;-2.31;55.68;95690.41;4996156;28;20506;-57
2021/12/22 03:24:34;;;;;;;13.60;9.10;;;-1.80;73.20;;;-2.31;55.45;95689.56;4999087;28;20456;-56
2021/12/22 03:27:03;;;;;;;12.77;8.13;;;-1.80;73.10;;;-2.32;56.31;95699.03;4992987;28;20473;-60
2021/12/22 03:29:30;;;;;;;15.43;7.47;;;-1.80;73.20;;;-2.32;56.09;95693.88;4998150;28;20493;-56
2021/12/22 03:31:58;;;;;;;15.57;7.63;;;-1.80;73.30;;;-2.30;55.63;95697.25;5002977;28;20463;-59
2021/12/22 03:34:25;;;;;;;14.13;7.37;;;-1.80;73.20;;;-2.29;55.49;95698.09;5001337;28;20513;-56
2021/12/22 03:36:52;;;;;;;15.67;8.33;;;-1.80;72.90;;;-2.30;55.34;95691.25;5001773;28;20933;-56
2021/12/22 03:39:21;;;;;;;18.43;7.87;;;-1.80;72.70;;;-2.29;55.90;95692.94;5001207;28;20453;-60
2021/12/22 03:41:49;;;;;;;11.43;7.73;;;-1.80;72.90;;;-2.29;56.44;95682.63;5001132;28;20474;-60
2021/12/22 03:44:16;;;;;;;12.30;7.33;;;-1.80;73.10;;;-2.31;55.75;95690.41;4997738;28;20470;-56
2021/12/22 03:46:43;;;;;;;19.00;11.57;;;-1.80;72.90;;;-2.37;56.29;95693.13;4993287;28;20475;-60
2021/12/22 03:49:12;;;;;;;24.13;12.00;;;-1.90;72.80;;;-2.46;56.64;95696.81;4994187;28;20462;-58
2021/12/22 03:51:39;;;;;;;20.90;12.13;;;-2.00;73.30;;;-2.56;55.76;95696.19;4997373;28;20481;-56
2021/12/22 03:54:07;;;;;;;23.33;12.00;;;-2.00;73.30;;;-2.61;56.59;95703.22;5004351;28;20457;-57
2021/12/22 03:56:36;;;;;;;22.33;12.70;;;-2.10;73.20;;;-2.63;56.50;95696.44;5004862;28;20496;-57
2021/12/22 03:59:03;;;;;;;20.97;11.83;;;-2.10;73.50;;;-2.66;55.81;95701.66;5007277;28;20465;-60
2021/12/22 04:01:30;;;;;;;25.80;11.13;;;-2.10;73.60;;;-2.71;56.13;95704.34;5005463;28;20492;-56
2021/12/22 04:04:02;;;;;;;23.93;12.40;;;-2.20;73.60;;;-2.75;56.80;95697.59;5004777;28;20971;-57
2021/12/22 04:06:29;;;;;;;22.03;12.40;;;-2.20;73.60;;;-2.77;55.63;95707.09;4998855;28;20967;-60
2021/12/22 04:08:57;;;;;;;25.03;11.20;;;-2.20;73.80;;;-2.79;55.96;95704.53;5002538;28;20854;-58
2021/12/22 04:11:24;;;;;;;33.53;12.37;;;-2.30;74.00;;;-2.80;57.01;95704.59;5000300;28;20490;-60
2021/12/22 04:13:53;;;;;;;26.80;15.07;;;-2.30;74.50;;;-2.83;56.29;95697.78;5001067;28;20449;-55
2021/12/22 04:16:20;;;;;;;22.30;11.60;;;-2.30;74.00;;;-2.89;56.99;95703.06;5005428;28;20473;-60
2021/12/22 04:18:47;;;;;;;23.23;12.67;;;-2.30;74.50;;;-2.94;57.14;95705.75;5002404;28;20450;-57
2021/12/22 04:21:15;;;;;;;36.70;13.07;;;-2.40;74.60;;;-2.96;56.09;95712.69;5002401;28;20482;-61
2021/12/22 04:23:42;;;;;;;24.33;12.37;;;-2.40;74.50;;;-2.96;56.14;95712.69;5004957;28;20454;-60
2021/12/22 04:26:12;;;;;;;27.63;11.33;;;-2.40;74.60;;;-2.95;57.28;95719.50;5006727;28;20462;-60
2021/12/22 04:28:39;;;;;;;17.90;10.70;;;-2.40;75.00;;;-2.98;56.76;95719.56;5004373;28;20481;-57
2021/12/22 04:31:08;;;;;;;24.27;11.70;;;-2.40;75.50;;;-3.03;56.76;95716.28;5003830;28;20477;-56
2021/12/22 04:33:35;;;;;;;26.10;14.50;;;-2.50;75.30;;;-3.06;56.65;95722.34;4998983;28;20866;-61
2021/12/22 04:36:03;;;;;;;28.97;12.90;;;-2.50;75.20;;;-3.11;57.76;95721.59;5003132;28;20808;-57
2021/12/22 04:38:31;;;;;;;33.63;15.17;;;-2.60;75.10;;;-3.17;57.54;95719.19;5003429;28;20456;-57
2021/12/22 04:40:58;;;;;;;30.57;14.80;;;-2.60;75.10;;;-3.19;57.22;95722.66;5000806;28;20471;-56
2021/12/22 04:43:25;;;;;;;34.20;15.93;;;-2.60;75.50;;;-3.19;58.10;95727.81;5002188;28;20449;-58
2021/12/22 04:45:53;;;;;;;32.93;17.90;;;-2.60;75.90;;;-3.17;57.37;95729.47;5003183;28;20478;-57
2021/12/22 04:48:21;;;;;;;35.90;18.13;;;-2.60;75.80;;;-3.14;57.40;95738.84;5010494;28;20454;-57
2021/12/22 04:50:49;;;;;;;37.17;19.10;;;-2.60;76.60;;;-3.12;58.31;95737.91;5001625;28;20812;-58
2021/12/22 04:53:21;;;;;;;30.13;15.73;;;-2.60;76.30;;;-3.09;56.95;95732.69;5002098;28;20462;-57
2021/12/22 04:55:49;;;;;;;46.50;17.20;;;-2.60;76.00;;;-3.07;57.35;95735.25;5000953;28;20559;-57
2021/12/22 04:58:16;;;;;;;31.93;18.20;;;-2.50;76.50;;;-3.05;58.07;95738.63;5002074;28;20470;-58
2021/12/22 05:00:44;;;;;;;36.60;17.93;;;-2.50;76.30;;;-3.04;58.13;95735.16;4998410;28;20456;-59
2021/12/22 05:03:11;;;;;;;44.43;19.23;;;-2.50;76.20;;;-3.06;57.75;95731.78;4998568;28;20933;-58
2021/12/22 05:05:40;;;;;;;51.83;22.40;;;-2.50;76.20;;;-3.08;56.80;95742.13;5001101;28;20458;-59
2021/12/22 05:08:07;;;;;;;38.33;17.97;;;-2.50;75.90;;;-3.11;58.19;95749.06;5004505;28;20481;-70
2021/12/22 05:10:35;;;;;;;40.70;18.13;;;-2.50;76.20;;;-3.14;56.84;95749.16;5008107;28;20461;-63
2021/12/22 05:13:02;;;;;;;33.90;15.90;;;-2.60;75.80;;;-3.16;58.30;95745.75;5004690;28;20446;-62
2021/12/22 05:15:37;;;;;;;31.37;13.57;;;-2.60;76.00;;;-3.16;57.86;95745.75;5003737;28;20489;-58
2021/12/22 05:18:25;;;;;;;31.43;14.00;;;-2.60;76.10;;;-3.16;58.11;95746.59;5002306;28;20443;-61
2021/12/22 05:20:54;;;;;;;40.27;14.10;;;-2.60;76.00;;;-3.15;57.69;95752.59;5006304;28;21001;-60
2021/12/22 05:23:21;;;;;;;27.30;14.10;;;-2.60;75.90;;;-3.14;57.97;95756.88;4999487;28;20461;-57
2021/12/22 05:25:49;;;;;;;26.00;13.60;;;-2.60;75.70;;;-3.16;57.49;95749.19;4999860;28;20466;-56
2021/12/22 05:28:16;;;;;;;31.47;12.63;;;-2.60;76.10;;;-3.15;57.45;95757.75;5005998;28;20540;-57
2021/12/22 05:30:46;;;;;;;25.53;11.70;;;-2.60;76.00;;;-3.20;58.09;95757.84;5003400;28;20513;-57
2021/12/22 05:33:14;;;;;;;20.60;11.63;;;-2.60;76.10;;;-3.21;57.55;95761.28;5001903;28;21050;-61
2021/12/22 05:35:41;;;;;;;26.53;12.30;;;-2.70;76.10;;;-3.23;57.10;95760.47;5004776;28;20975;-57
2021/12/22 05:38:10;;;;;;;24.40;13.07;;;-2.70;76.10;;;-3.22;57.09;95761.31;5002179;28;20891;-57
2021/12/22 05:40:37;;;;;;;27.97;13.47;;;-2.70;76.10;;;-3.22;58.64;95761.31;4998646;28;20544;-61
2021/12/22 05:43:05;;;;;;;33.60;12.33;;;-2.70;76.70;;;-3.21;57.18;95758.72;4995271;28;20455;-56
2021/12/22 05:45:32;;;;;;;35.27;14.00;;;-2.70;76.40;;;-3.21;58.08;95757.88;5000998;28;20469;-56
2021/12/22 05:47:59;;;;;;;20.90;11.60;;;-2.60;76.80;;;-3.20;57.19;95754.44;4993512;28;20963;-58
2021/12/22 05:50:27;;;;;;;28.73;12.47;;;-2.70;76.70;;;-3.17;57.89;95755.19;4999639;28;20446;-61
2021/12/22 05:52:54;;;;;;;22.27;10.30;;;-2.60;76.30;;;-3.16;57.41;95758.59;5002795;28;20474;-61
2021/12/22 05:55:23;;;;;;;14.67;9.97;;;-2.60;76.20;;;-3.20;57.59;95763.00;4998568;28;20565;-62
2021/12/22 05:57:50;;;;;;;27.97;12.07;;;-2.60;75.90;;;-3.23;58.15;95769.94;5000709;28;20466;-59
2021/12/22 06:00:18;;;;;;;20.17;10.37;;;-2.70;76.70;;;-3.27;58.18;95767.44;4998933;28;20461;-57
2021/12/22 06:02:45;;;;;;;25.17;13.70;;;-2.70;76.50;;;-3.27;57.33;95766.56;4999015;28;20483;-60
2021/12/22 06:05:12;;;;;;;36.93;15.03;;;-2.70;76.70;;;-3.25;58.36;95762.25;4996552;28;20446;-61
2021/12/22 06:07:40;;;;;;;39.83;15.90;;;-2.70;76.70;;;-3.20;57.71;95770.69;4995103;28;20475;-61
2021/12/22 06:10:07;;;;;;;40.87;18.70;;;-2.70;76.70;;;-3.16;58.20;95771.47;4994136;28;20451;-61
2021/12/22 06:12:36;;;;;;;50.50;23.17;;;-2.70;76.70;;;-3.12;56.99;95778.25;4991666;28;20479;-58
2021/12/22 06:15:04;;;;;;;47.47;19.17;;;-2.60;76.80;;;-3.08;57.91;95779.88;5000305;28;20493;-62
2021/12/22 06:17:31;;;;;;;41.03;20.00;;;-2.50;76.80;;;-3.06;58.13;95784.09;4995681;28;20482;-56
2021/12/22 06:19:59;;;;;;;47.17;22.50;;;-2.50;76.80;;;-3.00;57.28;95787.44;4999457;28;20454;-58
2021/12/22 06:22:28;;;;;;;55.70;26.00;;;-2.50;76.80;;;-2.97;57.01;95790.75;5000364;28;20875;-57
2021/12/22 06:24:55;;;;;;;51.33;25.83;;;-2.40;76.50;;;-2.95;57.18;95795.88;5001347;28;20464;-57
2021/12/22 06:27:23;;;;;;;55.10;23.60;;;-2.40;76.30;;;-2.96;56.81;95794.19;4997423;28;20475;-57
2021/12/22 06:29:51;;;;;;;47.73;24.90;;;-2.40;76.10;;;-2.95;57.85;95794.13;4997959;28;20462;-61
2021/12/22 06:32:19;;;;;;;51.87;22.17;;;-2.40;75.90;;;-2.95;57.52;95796.72;4994235;28;20467;-62
2021/12/22 06:34:46;;;;;;;45.50;20.97;;;-2.40;75.60;;;-2.93;56.80;95796.69;4997099;28;20470;-60
2021/12/22 06:37:14;;;;;;;42.13;20.43;;;-2.40;75.50;;;-2.84;56.92;95800.78;4993055;28;20481;-57
2021/12/22 06:39:41;;;;;;;28.63;15.17;;;-2.30;75.60;;;-2.48;56.55;95795.63;5000283;28;20457;-61
2021/12/22 06:42:09;;;;;;;28.73;13.77;;;-2.00;75.90;;;-1.93;56.03;95790.78;4999549;28;21000;-57
2021/12/22 06:44:36;;;;;;;31.83;13.77;;;-1.40;75.60;;;-1.17;55.24;95787.72;5001321;28;21034;-62
2021/12/22 06:47:06;;;;;;;25.07;13.63;;;-0.70;74.60;;;-0.29;54.09;95795.28;4999752;28;20808;-57
2021/12/22 06:49:33;;;;;;;26.70;14.00;;;0.20;72.90;;;0.49;52.66;95798.63;5000181;28;20455;-60
2021/12/22 06:52:00;;;;;;;28.90;12.63;;;1.00;70.40;;;1.05;49.42;95800.84;4994964;28;21070;-62
2021/12/22 06:54:28;;;;;;;21.97;12.07;;;1.60;66.50;;;1.55;51.01;95802.34;4994455;28;20481;-58
2021/12/22 06:56:55;;;;;;;23.20;13.47;;;2.20;66.40;;;2.19;49.78;95799.72;4994092;28;21010;-62
2021/12/22 06:59:22;;;;;;;41.90;16.80;;;2.90;65.50;;;2.95;48.44;95799.81;4996571;28;20450;-58
2021/12/22 07:01:51;;;;;;;38.50;19.63;;;3.60;63.90;;;3.70;47.11;95798.00;4993624;28;20478;-58
2021/12/22 07:04:20;;;;;;;44.00;22.77;;;4.30;61.60;;;4.47;46.19;95797.56;4999562;28;20450;-58
2021/12/22 07:06:48;;;;;;;55.63;29.30;;;5.10;59.70;;;5.18;44.74;95796.44;5002665;28;20476;-58
2021/12/22 07:09:15;;;;;;;72.03;35.47;;;5.80;58.10;;;5.82;43.85;95790.31;5001230;28;20454;-61
2021/12/22 07:11:43;;;;;;;69.40;37.13;;;6.40;56.70;;;6.36;42.62;95793.25;5001710;28;20506;-60
2021/12/22 07:14:10;;;;;;;62.43;35.10;;;6.90;55.00;;;6.89;41.94;95796.16;5003715;28;20536;-60
2021/12/22 07:16:38;;;;;;;73.60;36.33;;;7.40;54.10;;;7.38;40.99;95791.44;5000101;28;20509;-58
2021/12/22 07:19:06;;;;;;;69.53;33.23;;;7.90;52.70;;;7.80;40.92;95781.75;4995058;28;20768;-61
2021/12/22 07:21:35;;;;;;;67.57;32.10;;;8.30;52.20;;;8.21;40.27;95780.78;4992686;28;21762;-62
2021/12/22 07:24:03;;;;;;;58.33;29.63;;;8.70;51.10;;;8.58;39.45;95791.44;4994385;28;20455;-62
2021/12/22 07:26:30;;;;;;;56.13;28.00;;;9.20;50.60;;;8.94;38.90;95785.44;4998914;28;20489;-57
2021/12/22 07:28:58;;;;;;;47.77;25.80;;;9.60;49.20;;;9.30;38.63;95783.78;4996133;28;20467;-58
2021/12/22 07:31:25;;;;;;;40.23;23.43;;;10.00;47.30;;;9.64;38.20;95789.25;4998500;28;20477;-58
2021/12/22 07:34:01;;;;;;;38.07;21.57;;;10.40;47.30;;;10.00;38.03;95784.88;4999188;28;20458;-57
2021/12/22 07:36:28;;;;;;;47.03;21.83;;;10.80;46.80;;;10.33;37.09;95783.34;5002364;28;21014;-58
2021/12/22 07:39:00;;;;;;;30.57;19.50;;;11.20;46.20;;;10.69;35.92;95775.38;4997930;28;20446;-62
2021/12/22 07:41:27;;;;;;;35.53;18.43;;;11.60;44.10;;;11.01;36.30;95774.69;4999543;28;20474;-62
2021/12/22 07:43:54;;;;;;;26.50;16.70;;;11.90;44.70;;;11.15;35.37;95773.59;4992082;28;20458;-63
2021/12/22 07:46:22;;;;;;;28.03;16.20;;;12.00;42.70;;;10.72;34.90;95772.50;4993719;28;20478;-63
2021/12/22 07:48:49;;;;;;;21.73;13.87;;;11.60;41.80;;;9.91;35.68;95775.03;4991425;28;20553;-58
2021/12/22 07:51:16;;;;;;;21.70;14.67;;;10.90;42.20;;;9.07;36.03;95774.09;4996982;28;20501;-63
2021/12/22 07:53:43;;;;;;;23.90;13.43;;;10.00;42.20;;;8.24;37.01;95770.94;4997084;28;20470;-58
2021/12/22 07:56:12;;;;;;;22.43;14.03;;;9.20;43.90;;;7.55;37.56;95778.09;4996756;28;20493;-58
2021/12/22 07:58:40;;;;;;;33.80;13.23;;;8.40;44.50;;;6.91;38.52;95775.16;5001453;28;20458;-60
2021/12/22 08:01:07;;;;;;;22.10;12.10;;;7.60;45.30;;;6.30;39.36;95780.56;5001572;28;20486;-57
2021/12/22 08:03:34;;;;;;;24.13;12.33;;;7.00;46.70;;;5.78;39.76;95787.03;4996521;28;20883;-62
2021/12/22 08:06:02;;;;;;;26.07;11.50;;;6.40;47.00;;;5.40;40.48;95797.84;4996298;28;20483;-58
2021/12/22 08:08:29;;;;;;;20.80;10.97;;;5.90;48.10;;;5.08;41.18;95791.81;4991768;28;20461;-57
2021/12/22 08:10:56;;;;;;;15.47;10.43;;;5.60;49.30;;;4.80;41.69;95794.16;4996731;28;21025;-62
2021/12/22 08:13:25;;;;;;;23.27;13.30;;;5.20;49.80;;;4.62;41.83;95803.78;4997132;28;20489;-62
2021/12/22 08:15:52;;;;;;;23.67;14.60;;;5.00;50.50;;;4.67;42.48;95809.56;4998917;28;20494;-58
2021/12/22 08:18:20;;;;;;;23.27;13.63;;;5.00;51.40;;;5.11;42.72;95808.16;5001672;28;20473;-58
2021/12/22 08:20:47;;;;;;;20.00;12.63;;;5.30;51.90;;;5.78;41.34;95807.91;4998387;28;20461;-62
2021/12/22 08:23:16;;;;;;;22.97;13.00;;;5.80;50.90;;;6.50;40.22;95799.44;4999422;28;20459;-62
2021/12/22 08:25:43;;;;;;;13.67;9.87;;;6.40;50.20;;;7.17;39.60;95802.31;5004006;28;20477;-61
2021/12/22 08:28:10;;;;;;;17.70;11.50;;;7.00;50.10;;;7.59;39.05;95808.41;5002032;28;21001;-69
2021/12/22 08:30:39;;;;;;;30.03;13.53;;;7.50;48.70;;;7.77;37.66;95805.53;4995638;28;20450;-62
2021/12/22 08:33:15;;;;;;;19.60;12.07;;;7.70;47.30;;;7.82;38.72;95801.69;4991839;28;20760;-58
2021/12/22 08:41:08;;;;;;;29.20;13.23;;;7.90;44.90;;;7.47;37.17;95811.81;4998829;28;20903;-62
2021/12/22 08:43:35;;;;;;;28.50;12.93;;;7.70;45.90;;;7.33;38.36;95810.88;5004190;28;20485;-57
2021/12/22 08:46:04;;;;;;;34.17;14.43;;;7.60;46.90;;;7.48;38.42;95809.09;5002338;28;20466;-62
2021/12/22 08:48:31;;;;;;;27.93;13.73;;;7.70;47.60;;;7.86;38.30;95811.00;5000973;28;20454;-58
2021/12/22 08:50:58;;;;;;;24.67;14.00;;;8.00;47.70;;;8.42;37.79;95812.59;5001836;28;20469;-62
2021/12/22 08:53:26;;;;;;;32.40;15.17;;;8.40;48.00;;;8.93;35.91;95804.75;5001778;28;20535;-62
2021/12/22 08:55:53;;;;;;;25.20;13.37;;;8.80;45.70;;;9.37;36.03;95804.34;4999617;28;20548;-56
2021/12/22 08:58:20;;;;;;;39.23;15.10;;;9.20;45.50;;;9.64;34.03;95809.44;4993061;28;20545;-62
2021/12/22 09:00:47;;;;;;;34.73;15.23;;;9.50;43.00;;;9.44;34.76;95813.47;4993699;28;20473;-62
2021/12/22 09:03:16;;;;;;;23.20;12.70;;;9.40;42.70;;;9.01;35.43;95811.25;4998009;28;20449;-62
2021/12/22 09:05:43;;;;;;;43.57;13.43;;;9.10;43.80;;;8.62;35.79;95808.66;4997302;28;20442;-63
2021/12/22 09:08:11;;;;;;;25.57;13.40;;;8.90;44.30;;;8.47;36.22;95807.91;5002962;28;20450;-62
2021/12/22 09:10:38;;;;;;;25.80;14.33;;;8.70;44.40;;;8.53;35.06;95802.25;5003413;28;20457;-56
2021/12/22 09:13:05;;;;;;;38.47;17.20;;;8.60;44.40;;;8.44;36.68;95805.47;5005295;28;20454;-62
2021/12/22 09:15:35;;;;;;;32.70;15.33;;;8.60;44.80;;;8.45;36.64;95809.78;5004473;28;20460;-61
2021/12/22 09:18:02;;;;;;;35.03;15.03;;;8.60;45.60;;;8.46;36.43;95800.13;5002333;28;20462;-58
2021/12/22 09:20:31;;;;;;;48.17;17.00;;;8.50;45.20;;;8.46;36.50;95801.00;5007442;28;20454;-62
2021/12/22 09:22:58;;;;;;;32.70;15.47;;;8.50;45.20;;;8.36;36.35;95795.47;4993025;28;20458;-59
2021/12/22 09:25:26;;;;;;;28.37;17.00;;;8.50;45.20;;;8.31;36.04;95796.75;4997232;28;20863;-62
2021/12/22 09:27:53;;;;;;;61.73;16.20;;;8.50;44.70;;;8.29;37.14;95799.47;5004344;28;21002;-58
2021/12/22 09:30:20;;;;;;;31.40;16.90;;;8.40;45.90;;;8.22;37.66;95796.41;5002647;28;20895;-59
2021/12/22 09:32:48;;;;;;;34.47;15.03;;;8.30;46.20;;;8.20;38.02;95800.09;5000058;28;20478;-62
2021/12/22 09:35:15;;;;;;;27.47;15.90;;;8.30;46.70;;;8.29;38.00;95790.75;5000190;28;20550;-57
2021/12/22 09:37:44;;;;;;;37.73;12.93;;;8.40;46.90;;;8.40;35.16;95796.13;4998659;28;21025;-62
2021/12/22 09:40:12;;;;;;;25.93;12.83;;;8.50;44.00;;;8.47;36.88;95786.09;5001022;28;20455;-58
2021/12/22 09:42:39;;;;;;;31.00;12.83;;;8.50;45.60;;;8.64;36.77;95782.31;4995461;28;20490;-62
2021/12/22 09:45:07;;;;;;;22.70;12.17;;;8.60;46.10;;;8.92;36.51;95776.84;4995581;28;20537;-60
2021/12/22 09:47:49;;;;;;;21.80;11.90;;;8.80;45.90;;;9.12;36.29;95774.59;4996608;28;20474;-63
2021/12/22 09:50:34;;;;;;;23.07;11.77;;;9.10;45.50;;;9.26;35.85;95787.56;5001559;28;20489;-62
2021/12/22 09:53:03;;;;;;;21.67;12.63;;;9.20;44.30;;;9.15;35.24;95779.63;4996680;28;20453;-58
2021/12/22 09:55:33;;;;;;;28.20;13.47;;;9.20;43.00;;;8.91;35.41;95769.91;5002864;28;20462;-62
2021/12/22 09:58:01;;;;;;;22.77;12.93;;;9.10;43.90;;;8.68;35.83;95776.75;5004083;28;20490;-57
2021/12/22 10:00:29;;;;;;;25.63;13.60;;;8.90;43.80;;;8.50;34.73;95770.16;5000248;28;20446;-62
2021/12/22 10:02:56;;;;;;;20.37;12.67;;;8.70;42.70;;;8.46;36.85;95769.53;5000899;28;20541;-62
2021/12/22 10:05:24;;;;;;;29.83;12.17;;;8.60;44.40;;;8.58;36.64;95763.44;4996666;28;20442;-58
2021/12/22 10:08:07;;;;;;;20.57;11.60;;;8.70;45.00;;;8.80;35.42;95754.09;5003428;28;20922;-62
2021/12/22 10:10:36;;;;;;;23.00;12.33;;;8.80;44.50;;;8.93;33.37;95756.69;4999267;28;20467;-62
2021/12/22 10:13:07;;;;;;;31.23;13.40;;;8.90;41.60;;;9.13;35.63;95755.28;4994854;28;20978;-60
2021/12/22 10:15:36;;;;;;;27.83;12.60;;;9.10;44.40;;;9.28;35.49;95763.84;5004805;28;20453;-58
2021/12/22 10:18:11;;;;;;;26.77;14.03;;;9.20;43.40;;;9.40;35.81;95754.25;5004620;28;20539;-61
2021/12/22 10:20:38;;;;;;;27.00;15.13;;;9.30;44.10;;;9.52;34.06;95753.38;5002707;28;20442;-60
2021/12/22 10:23:22;;;;;;;26.50;14.13;;;9.50;42.30;;;9.51;35.31;95756.94;5000114;28;20549;-63
2021/12/22 10:25:54;;;;;;;26.60;13.80;;;9.50;44.00;;;9.49;35.83;95754.41;4997407;28;20450;-62
2021/12/22 10:28:21;;;;;;;24.57;13.40;;;9.50;44.20;;;9.41;35.67;95750.69;4996715;28;20831;-63